CRW weather

Yeager Airport
Charleston, West Virginia, United States

Public forecast

Using degrees Fahrenheit for public forecast. Weather courtesy of forecast.io.

METAR (pilot weather report)

Retrieved 2019/05/26 09:54 UTC (33 minutes ago):

KCRW 260954Z 00000KT 10SM SCT075 19/18 A3008 RMK AO2 SLP178 VLY FG T01890178

TAF (pilot weather forecast)

Retrieved 2019/05/26 06:39 UTC (4 hours ago):

TAF KCRW 260537Z 2606/2706 00000KT P6SM FEW050 FM261200 VRB03KT P6SM SCT045 FM261700 26006KT 6SM -SHRA VCTS BKN035CB FM261900 27005KT P6SM SCT100 FM262300 31010KT 3SM TSRA BKN030CB FM270100 29006KT P6SM BKN050